Time;durP1;ratioP1;P1;durP2;ratioP2;P2;SDS_P1;SDS_P2;PMS_P1;PMS_P2;Temp;Humidity;BMP_temperature;BMP_pressure;BME280_temperature;BME280_humidity;BME280_pressure;Samples;Min_cycle;Max_cycle;Signal;HPM_P1;HPM_P2
2024/02/22 00:01:51;;;;;;;17.05;14.23;;;;;;;-4.41;100.00;100431.56;5043226;28;21223;-71
2024/02/22 00:04:20;;;;;;;19.02;11.00;;;;;;;-4.45;100.00;100431.53;5041119;28;20033;-71
2024/02/22 00:06:46;;;;;;;20.52;14.23;;;;;;;-4.41;100.00;100428.16;5020939;28;20053;-70
2024/02/22 00:09:12;;;;;;;8.90;7.70;;;;;;;-4.38;100.00;100434.16;5040740;28;20393;-72
2024/02/22 00:11:40;;;;;;;15.68;8.88;;;;;;;-4.37;100.00;100430.78;5053002;28;20038;-71
2024/02/22 00:14:07;;;;;;;12.13;9.82;;;;;;;-4.35;100.00;100425.72;5041860;28;20045;-71
2024/02/22 00:16:36;;;;;;;14.30;10.43;;;;;;;-4.36;100.00;100424.00;5042019;28;20044;-70
2024/02/22 00:19:02;;;;;;;18.15;11.77;;;;;;;-4.34;100.00;100423.19;5040617;28;20541;-71
2024/02/22 00:21:28;;;;;;;16.05;12.25;;;;;;;-4.34;100.00;100417.22;5041586;28;20045;-70
2024/02/22 00:23:55;;;;;;;18.65;13.27;;;;;;;-4.34;100.00;100418.09;5048185;28;20044;-70
2024/02/22 00:26:23;;;;;;;17.60;11.68;;;;;;;-4.34;100.00;100415.53;5046423;28;20053;-71
2024/02/22 00:28:51;;;;;;;16.83;10.18;;;;;;;-4.32;100.00;100416.41;5048790;28;20371;-71
2024/02/22 00:31:18;;;;;;;14.07;12.40;;;;;;;-4.32;100.00;100405.38;5048800;28;20171;-70
2024/02/22 00:33:45;;;;;;;20.83;15.70;;;;;;;-4.33;100.00;100412.16;5041827;28;20033;-71
2024/02/22 00:36:12;;;;;;;17.85;11.55;;;;;;;-4.31;100.00;100395.19;5038171;28;20064;-71
2024/02/22 00:38:41;;;;;;;22.35;14.57;;;;;;;-4.31;100.00;100413.03;5037075;28;20114;-71
2024/02/22 00:41:07;;;;;;;19.85;13.80;;;;;;;-4.29;100.00;100400.31;5039978;28;20037;-71
2024/02/22 00:43:33;;;;;;;12.98;11.45;;;;;;;-4.27;100.00;100404.59;5041579;28;20140;-71
2024/02/22 00:45:59;;;;;;;9.10;8.23;;;;;;;-4.28;100.00;100407.09;5019142;28;20042;-71
2024/02/22 00:48:25;;;;;;;21.75;14.88;;;;;;;-4.29;100.00;100408.78;5040055;28;20059;-71
2024/02/22 00:50:52;;;;;;;19.90;13.68;;;;;;;-4.28;100.00;100407.97;5037638;28;20056;-71
2024/02/22 00:53:18;;;;;;;25.13;15.30;;;;;;;-4.27;100.00;100403.72;5038640;28;20045;-73
2024/02/22 00:55:44;;;;;;;13.88;11.77;;;;;;;-4.27;100.00;100403.72;5041570;28;20052;-72
2024/02/22 00:58:11;;;;;;;18.95;14.13;;;;;;;-4.25;100.00;100407.16;5038548;28;20535;-73
2024/02/22 01:00:37;;;;;;;16.27;12.10;;;;;;;-4.26;100.00;100396.13;5039588;28;20033;-78
2024/02/22 01:03:04;;;;;;;14.45;8.80;;;;;;;-142.02;100.00;61695.09;5022417;28;20033;-77
2024/02/22 01:05:31;;;;;;;23.85;15.65;;;;;;;-142.02;100.00;61695.09;5036393;28;20053;-77
2024/02/22 01:08:28;;;;;;;15.60;10.70;;;;;;;-142.02;100.00;61695.09;5073482;22;20025;31
2024/02/22 01:10:55;;;;;;;10.77;9.68;;;;;;;-142.02;100.00;61695.09;5002241;28;20053;-79
2024/02/22 01:13:22;;;;;;;14.52;9.30;;;;;;;-142.02;100.00;61695.09;5010119;28;20049;-77
2024/02/22 01:15:48;;;;;;;22.67;13.32;;;;;;;-142.02;100.00;61695.09;5020317;28;20057;-78
2024/02/22 01:18:14;;;;;;;21.23;14.30;;;;;;;-142.02;100.00;61695.09;5016438;28;20133;-77
2024/02/22 01:20:43;;;;;;;20.48;13.07;;;;;;;-142.02;100.00;61695.09;4998671;28;20066;-77
2024/02/22 01:23:09;;;;;;;18.13;9.43;;;;;;;-142.02;100.00;61695.09;5019875;28;20038;-77
2024/02/22 01:25:36;;;;;;;20.40;14.23;;;;;;;-142.02;100.00;61695.09;5024389;28;20626;-77
2024/02/22 01:28:02;;;;;;;24.85;15.93;;;;;;;-142.02;100.00;61695.09;4990467;28;20042;-76
2024/02/22 01:30:28;;;;;;;16.38;11.32;;;;;;;-142.02;100.00;61695.09;5009457;28;20038;-76
2024/02/22 01:32:54;;;;;;;17.50;11.63;;;;;;;-4.21;100.00;100386.84;5003793;28;20041;-77
2024/02/22 01:35:21;;;;;;;19.88;11.93;;;;;;;-4.19;100.00;100393.66;5015101;28;20049;-78
2024/02/22 01:37:48;;;;;;;22.85;16.98;;;;;;;-4.22;100.00;100391.91;4995854;28;20042;-76
2024/02/22 01:40:15;;;;;;;19.67;13.30;;;;;;;-4.19;100.00;100391.09;5001171;28;20046;-76
2024/02/22 01:42:41;;;;;;;18.90;12.60;;;;;;;-4.19;100.00;100388.56;5014517;28;20029;-76
2024/02/22 01:45:08;;;;;;;27.90;17.45;;;;;;;-4.19;100.00;100380.91;5015071;28;20050;-77
2024/02/22 01:47:34;;;;;;;22.13;14.60;;;;;;;-4.21;100.00;100386.84;5006269;28;20258;-76
2024/02/22 01:50:00;;;;;;;15.95;13.00;;;;;;;-4.19;100.00;100375.81;4999114;28;20045;-77
2024/02/22 01:52:27;;;;;;;21.80;12.93;;;;;;;-4.20;100.00;100364.75;5007179;28;20045;-78
2024/02/22 01:54:53;;;;;;;27.63;13.95;;;;;;;-4.17;100.00;100372.44;5007893;28;20213;-77
2024/02/22 01:57:19;;;;;;;19.48;11.10;;;;;;;-4.19;100.00;100375.81;5004973;28;20125;-77
2024/02/22 01:59:45;;;;;;;19.75;13.75;;;;;;;-142.02;100.00;61695.09;5001139;28;20565;-77
2024/02/22 02:02:12;;;;;;;25.10;16.63;;;;;;;-4.18;100.00;100331.63;5021542;28;20046;-76
2024/02/22 02:04:38;;;;;;;21.83;16.25;;;;;;;-142.02;100.00;61695.09;5012084;28;20052;-77
2024/02/22 02:07:05;;;;;;;32.35;14.88;;;;;;;-142.02;100.00;61695.09;5011081;28;20045;-75
2024/02/22 02:09:31;;;;;;;23.45;13.73;;;;;;;-142.02;100.00;61695.09;5008181;28;20054;-75
2024/02/22 02:11:57;;;;;;;16.60;12.52;;;;;;;-142.02;100.00;61695.09;5013961;28;20037;-77
2024/02/22 02:14:23;;;;;;;25.52;17.52;;;;;;;-142.02;100.00;61695.09;5005940;28;20056;-75
2024/02/22 02:16:50;;;;;;;24.35;13.80;;;;;;;-142.02;100.00;61695.09;5008718;28;20414;-77
2024/02/22 02:19:19;;;;;;;21.20;15.07;;;;;;;-142.02;100.00;61695.09;5013413;28;20041;-76
2024/02/22 02:21:59;;;;;;;22.25;14.57;;;;;;;-142.02;100.00;61695.09;4996969;28;20053;-77
2024/02/22 02:24:33;;;;;;;13.03;11.20;;;;;;;-142.02;100.00;61695.09;5016211;28;20052;-77
2024/02/22 02:27:00;;;;;;;28.38;17.20;;;;;;;-142.02;100.00;61695.09;5010721;28;20784;-78
2024/02/22 02:29:26;;;;;;;20.45;12.70;;;;;;;-142.02;100.00;61695.09;5016483;28;20045;-76
2024/02/22 02:31:52;;;;;;;19.00;12.70;;;;;;;-142.02;100.00;61695.09;5015611;28;20736;-76
2024/02/22 02:34:18;;;;;;;17.50;12.15;;;;;;;-142.02;100.00;61695.09;4984893;28;20034;-78
2024/02/22 02:36:44;;;;;;;25.30;15.98;;;;;;;-142.02;100.00;61695.09;5001597;28;20056;-79
2024/02/22 02:39:10;;;;;;;17.05;13.30;;;;;;;-142.02;100.00;61695.09;5001596;28;20030;-78
2024/02/22 02:52:52;;;;;;;19.40;12.20;;;;;;;;;;5120618;27;20212;-76
2024/02/22 02:55:19;;;;;;;23.02;16.98;;;;;;;;;;5102712;28;20051;-76
2024/02/22 02:57:45;;;;;;;21.60;12.30;;;;;;;;;;5052157;28;20672;-74
2024/02/22 03:00:12;;;;;;;28.85;17.75;;;;;;;;;;5104595;28;20407;-74
2024/02/22 03:02:39;;;;;;;20.75;13.68;;;;;;;;;;5086713;28;20043;-75
2024/02/22 03:05:05;;;;;;;23.83;15.50;;;;;;;;;;5097534;28;20410;-75
2024/02/22 03:07:31;;;;;;;19.35;14.60;;;;;;;;;;5086526;28;20024;-74
2024/02/22 03:09:57;;;;;;;27.23;16.90;;;;;;;;;;5105217;28;20032;-77
2024/02/22 03:12:23;;;;;;;19.83;15.70;;;;;;;;;;5097283;28;20036;-77
2024/02/22 03:14:50;;;;;;;26.38;14.88;;;;;;;;;;5104805;28;20074;-78
2024/02/22 03:17:17;;;;;;;25.67;16.50;;;;;;;;;;5103628;28;20023;-77
2024/02/22 03:19:43;;;;;;;19.48;13.23;;;;;;;;;;5084715;28;20032;-76
2024/02/22 03:22:08;;;;;;;14.88;10.90;;;;;;;;;;5104922;28;20047;-76
2024/02/22 03:24:36;;;;;;;26.90;15.93;;;;;;;;;;5101594;28;20067;-76
2024/02/22 03:27:10;;;;;;;24.13;14.15;;;;;;;;;;5101719;28;20035;-76
2024/02/22 03:29:39;;;;;;;19.10;14.48;;;;;;;;;;5097027;28;20032;-75
2024/02/22 03:32:05;;;;;;;20.02;14.73;;;;;;;;;;5103323;28;20035;-76
2024/02/22 03:34:36;;;;;;;39.80;22.33;;;;;;;;;;5086110;28;20043;-75
2024/02/22 03:37:02;;;;;;;25.77;13.05;;;;;;;;;;5101305;28;20032;-74
2024/02/22 03:39:28;;;;;;;27.13;18.25;;;;;;;;;;5086557;28;20032;-75
2024/02/22 03:41:54;;;;;;;24.50;13.85;;;;;;;;;;5080865;28;20036;-77
2024/02/22 03:44:20;;;;;;;18.02;12.05;;;;;;;;;;5097131;28;20036;-75
2024/02/22 03:46:46;;;;;;;25.63;14.60;;;;;;;;;;5083442;28;20112;-75
2024/02/22 03:49:12;;;;;;;23.10;13.73;;;;;;;;;;5098257;28;20534;-76
2024/02/22 03:51:38;;;;;;;28.83;16.88;;;;;;;;;;5087614;28;20064;-76
2024/02/22 03:54:04;;;;;;;20.65;13.63;;;;;;;;;;5080971;28;20403;-76
2024/02/22 03:56:31;;;;;;;25.27;16.63;;;;;;;;;;5056245;28;20123;-75
2024/02/22 03:58:57;;;;;;;35.17;21.33;;;;;;;;;;5069062;28;20028;-76
2024/02/22 04:01:23;;;;;;;27.38;13.55;;;;;;;;;;5053749;28;20044;-75
2024/02/22 04:03:49;;;;;;;24.08;14.45;;;;;;;;;;5081793;28;20488;-75
2024/02/22 04:06:15;;;;;;;28.02;13.77;;;;;;;;;;5089442;28;20051;-75
2024/02/22 04:08:40;;;;;;;25.98;15.73;;;;;;;;;;5077638;28;20036;-75
2024/02/22 04:11:06;;;;;;;24.17;15.73;;;;;;;;;;5088567;28;20511;-76
2024/02/22 04:13:32;;;;;;;26.20;15.45;;;;;;;;;;5078969;28;20043;-75
2024/02/22 04:15:58;;;;;;;31.05;18.23;;;;;;;;;;5083665;28;20539;-75
2024/02/22 04:18:24;;;;;;;22.50;13.68;;;;;;;;;;5073476;28;20074;-75
2024/02/22 04:20:50;;;;;;;28.98;15.07;;;;;;;;;;5069557;28;20051;-75
2024/02/22 04:23:15;;;;;;;24.00;14.20;;;;;;;;;;5083772;28;20032;-76
2024/02/22 04:25:41;;;;;;;13.35;9.25;;;;;;;;;;5083839;28;20051;-80
2024/02/22 04:28:07;;;;;;;22.90;13.70;;;;;;;;;;5086137;28;20029;-81
2024/02/22 04:30:33;;;;;;;24.52;15.27;;;;;;;;;;5098251;28;20078;-80
2024/02/22 04:32:58;;;;;;;29.95;17.70;;;;;;;;;;5093867;28;20032;-80
2024/02/22 04:35:24;;;;;;;29.27;16.35;;;;;;;;;;5067940;28;20552;-81
2024/02/22 04:37:50;;;;;;;29.42;16.58;;;;;;;;;;5074195;28;20107;-82
2024/02/22 04:40:16;;;;;;;18.17;13.30;;;;;;;;;;5088760;28;20068;-81
2024/02/22 04:42:44;;;;;;;26.70;16.80;;;;;;;;;;5088061;28;20044;-79
2024/02/22 04:45:12;;;;;;;19.13;14.07;;;;;;;;;;5038676;28;20054;-81
2024/02/22 04:47:37;;;;;;;29.77;14.73;;;;;;;;;;5070356;28;20039;-81
2024/02/22 04:50:05;;;;;;;28.00;17.50;;;;;;;;;;5095496;28;20074;-80
2024/02/22 04:52:31;;;;;;;25.67;15.73;;;;;;;;;;5104643;28;20047;-81
2024/02/22 04:54:59;;;;;;;24.08;13.10;;;;;;;;;;5099195;28;20059;-81
2024/02/22 04:57:26;;;;;;;22.13;12.95;;;;;;;;;;5075083;28;20036;-80
2024/02/22 04:59:54;;;;;;;24.60;15.52;;;;;;;;;;5102977;28;20016;-81
2024/02/22 05:02:20;;;;;;;33.08;19.50;;;;;;;;;;5077641;28;20415;-81
2024/02/22 05:04:46;;;;;;;27.58;17.00;;;;;;;;;;5096289;28;20123;-79
2024/02/22 05:07:12;;;;;;;26.77;15.18;;;;;;;;;;5084190;28;20428;-79
2024/02/22 05:09:38;;;;;;;27.27;16.73;;;;;;;;;;5089348;28;20036;-82
2024/02/22 05:12:04;;;;;;;29.45;15.90;;;;;;;;;;5079500;28;20028;-81
2024/02/22 05:14:29;;;;;;;28.60;14.20;;;;;;;;;;5102665;28;20036;-80
2024/02/22 05:16:55;;;;;;;24.77;14.90;;;;;;;;;;5102660;28;20508;-80
2024/02/22 05:19:21;;;;;;;22.83;14.10;;;;;;;;;;5101310;28;20043;-82
2024/02/22 05:21:51;;;;;;;24.90;15.75;;;;;;;;;;5098592;28;20044;-80
2024/02/22 05:24:17;;;;;;;27.40;16.52;;;;;;;;;;5088493;28;20131;-82
2024/02/22 05:27:02;;;;;;;32.85;18.80;;;;;;;;;;5085041;28;20036;-81
2024/02/22 05:29:28;;;;;;;26.60;15.73;;;;;;;;;;5056741;28;20024;-83
2024/02/22 05:31:57;;;;;;;42.80;27.15;;;;;;;;;;5090645;28;20047;-82
2024/02/22 05:34:25;;;;;;;19.50;14.25;;;;;;;;;;5111262;28;20008;-81
2024/02/22 05:36:51;;;;;;;24.52;13.80;;;;;;;;;;5098654;28;20040;-80
2024/02/22 05:39:17;;;;;;;25.95;15.30;;;;;;;;;;5091062;28;20023;-81
2024/02/22 05:41:42;;;;;;;22.08;11.68;;;;;;;;;;5109839;28;20024;-82
2024/02/22 05:44:08;;;;;;;22.40;13.93;;;;;;;;;;5098518;28;20021;-81
2024/02/22 05:46:34;;;;;;;26.83;13.98;;;;;;;;;;5058137;28;20056;-79
2024/02/22 05:49:00;;;;;;;22.67;12.75;;;;;;;;;;5091730;28;20044;-81
2024/02/22 05:51:26;;;;;;;22.23;14.50;;;;;;;;;;5090936;28;20056;-80
2024/02/22 05:53:53;;;;;;;16.20;10.85;;;;;;;;;;5089530;28;20029;-80
2024/02/22 05:56:19;;;;;;;22.40;15.07;;;;;;;;;;5097400;28;20070;-78
2024/02/22 05:58:44;;;;;;;27.90;15.70;;;;;;;;;;5071500;28;20033;-79
2024/02/22 06:01:14;;;;;;;25.98;16.55;;;;;;;;;;5079607;28;20043;-79
2024/02/22 06:03:40;;;;;;;21.85;12.77;;;;;;;;;;5071492;28;20063;-81
2024/02/22 06:06:06;;;;;;;31.35;18.70;;;;;;;;;;5100492;28;20039;-87
2024/02/22 06:08:32;;;;;;;21.27;14.13;;;;;;;;;;5202534;22;20044;-85
2024/02/22 06:10:57;;;;;;;24.88;13.52;;;;;;;;;;5122388;23;20037;-82
2024/02/22 06:13:23;;;;;;;15.30;11.07;;;;;;;;;;5157417;23;20037;-82
2024/02/22 06:15:49;;;;;;;19.15;12.48;;;;;;;;;;5028170;28;20030;-80
2024/02/22 06:18:15;;;;;;;24.20;12.75;;;;;;;;;;5017637;28;20033;-78
2024/02/22 06:20:41;;;;;;;25.85;14.00;;;;;;;;;;4997665;28;20108;-78
2024/02/22 06:23:07;;;;;;;23.55;12.60;;;;;;;;;;5019022;28;20057;-79
2024/02/22 06:25:35;;;;;;;18.15;10.55;;;;;;;;;;4984262;28;20029;-80
2024/02/22 06:28:02;;;;;;;19.48;12.30;;;;;;;;;;5034995;28;20498;-78
2024/02/22 06:30:28;;;;;;;25.25;15.80;;;;;;;;;;4998886;28;20052;-78
2024/02/22 06:32:54;;;;;;;31.05;18.83;;;;;;;;;;5034741;28;20131;-79
2024/02/22 06:35:22;;;;;;;24.52;13.25;;;;;;;;;;5039411;28;20041;-78
2024/02/22 06:37:51;;;;;;;23.08;14.02;;;;;;;;;;5024503;28;20025;-79
2024/02/22 06:40:17;;;;;;;18.65;13.95;;;;;;;;;;5040248;28;20053;-80
2024/02/22 06:42:42;;;;;;;13.75;9.88;;;;;;;;;;5016045;28;20078;-77
2024/02/22 06:45:09;;;;;;;35.10;19.42;;;;;;;;;;5019936;28;20036;-79
2024/02/22 06:47:35;;;;;;;23.30;14.70;;;;;;;;;;5037957;28;20033;-76
2024/02/22 06:50:03;;;;;;;21.42;13.18;;;;;;;;;;4994935;28;20037;-77
2024/02/22 06:52:30;;;;;;;31.55;20.17;;;;;;;;;;5030243;28;20553;-78
2024/02/22 06:54:56;;;;;;;29.02;17.15;;;;;;;;;;5025394;28;20109;-76
2024/02/22 06:57:22;;;;;;;15.43;11.77;;;;;;;;;;5023712;28;20045;-76
2024/02/22 06:59:48;;;;;;;30.17;15.13;;;;;;;;;;5024137;28;20103;-77
2024/02/22 07:02:18;;;;;;;40.85;20.60;;;;;;;;;;5019301;28;20045;-76
2024/02/22 07:04:47;;;;;;;17.47;12.53;;;;;;;;;;5025289;28;20128;-76
2024/02/22 07:07:13;;;;;;;34.17;17.13;;;;;;;;;;5022982;28;20049;-76
2024/02/22 07:09:40;;;;;;;26.05;15.32;;;;;;;;;;4982410;28;20070;-75
2024/02/22 07:12:06;;;;;;;24.63;14.90;;;;;;;;;;5007424;28;20365;-76
2024/02/22 07:14:32;;;;;;;24.80;13.38;;;;;;;;;;4993950;28;20107;-76
2024/02/22 07:16:58;;;;;;;29.48;16.13;;;;;;;;;;5024917;28;20025;-75
2024/02/22 07:19:24;;;;;;;15.32;10.77;;;;;;;;;;5027009;28;20045;-77
2024/02/22 07:21:50;;;;;;;16.35;11.70;;;;;;;;;;5027408;28;20038;-76
2024/02/22 07:24:17;;;;;;;21.75;13.35;;;;;;;;;;5027797;28;20073;-76
2024/02/22 07:26:44;;;;;;;23.52;15.70;;;;;;;;;;5010874;28;20030;-77
2024/02/22 07:29:09;;;;;;;20.63;10.82;;;;;;;;;;5019039;28;20408;-78
2024/02/22 07:31:35;;;;;;;22.48;13.70;;;;;;;;;;5037675;28;20025;-78
2024/02/22 07:34:01;;;;;;;24.23;12.20;;;;;;;;;;5031144;28;20041;-77
2024/02/22 07:36:28;;;;;;;26.17;14.48;;;;;;;;;;5033276;28;20567;-77
2024/02/22 07:38:54;;;;;;;27.88;14.55;;;;;;;;;;5029955;28;20033;-74
2024/02/22 07:41:20;;;;;;;25.98;13.00;;;;;;;;;;5027796;28;20052;-75
2024/02/22 07:43:46;;;;;;;25.02;15.75;;;;;;;;;;5029178;28;20041;-77
2024/02/22 07:46:12;;;;;;;23.63;13.30;;;;;;;;;;5023587;28;20029;-75
2024/02/22 07:48:39;;;;;;;36.25;19.80;;;;;;;;;;5043910;28;20045;-77
2024/02/22 07:51:06;;;;;;;21.52;12.00;;;;;;;;;;5028034;28;20103;-78
2024/02/22 07:53:34;;;;;;;30.17;16.77;;;;;;;;;;5045841;28;20033;-78
2024/02/22 07:56:04;;;;;;;21.42;12.55;;;;;;;;;;5046715;28;20033;-78
2024/02/22 07:58:51;;;;;;;26.08;13.80;;;;;;;;;;5032178;28;20045;-78
2024/02/22 08:01:17;;;;;;;19.83;13.35;;;;;;;;;;5034928;28;20060;-79
2024/02/22 08:03:42;;;;;;;30.70;17.13;;;;;;;;;;5043192;28;20097;-79
2024/02/22 08:06:09;;;;;;;17.38;10.52;;;;;;;;;;5049075;28;20061;-79
2024/02/22 08:08:35;;;;;;;30.95;15.80;;;;;;;;;;5046599;28;20029;-78
2024/02/22 08:11:01;;;;;;;28.33;14.60;;;;;;;;;;5036439;28;20132;-78
2024/02/22 08:13:27;;;;;;;25.80;15.40;;;;;;;;;;5038644;28;20135;-78
2024/02/22 08:18:45;;;;;;;;;;;;;;;;;;5033756;28;20124;-80
2024/02/22 08:21:11;;;;;;;26.65;12.30;;;;;;;;;;5021489;28;19925;-80
2024/02/22 08:23:37;;;;;;;24.42;13.52;;;;;;;;;;5026716;28;20049;-81
2024/02/22 08:26:03;;;;;;;28.15;15.52;;;;;;;;;;5028891;28;20033;-80
2024/02/22 08:28:29;;;;;;;26.98;13.00;;;;;;;;;;5019251;28;20065;-80
2024/02/22 08:30:55;;;;;;;36.03;16.25;;;;;;;;;;5016788;28;20520;-81
2024/02/22 08:33:23;;;;;;;24.73;14.35;;;;;;;;;;5040501;28;20038;-80
2024/02/22 08:35:49;;;;;;;17.23;10.23;;;;;;;;;;5019907;28;20034;-78
2024/02/22 08:38:15;;;;;;;22.58;13.57;;;;;;;;;;5016789;28;20064;-78
2024/02/22 08:40:41;;;;;;;25.63;12.13;;;;;;;;;;5031358;28;20067;-78
2024/02/22 08:43:07;;;;;;;28.52;14.70;;;;;;;;;;5042292;28;20680;-78
2024/02/22 08:45:33;;;;;;;29.38;14.13;;;;;;;;;;5033421;28;20037;-77
2024/02/22 08:47:58;;;;;;;27.45;14.55;;;;;;;;;;5034177;28;20090;-78
2024/02/22 08:50:24;;;;;;;31.00;17.92;;;;;;;;;;5009539;28;20057;-77
2024/02/22 08:52:50;;;;;;;33.25;18.10;;;;;;;;;;5028344;28;20044;-77
2024/02/22 08:55:16;;;;;;;20.17;12.32;;;;;;;;;;5013471;28;20033;-76
2024/02/22 08:57:44;;;;;;;24.65;14.48;;;;;;;;;;5028627;28;20033;-76
2024/02/22 09:00:13;;;;;;;39.67;23.20;;;;;;;;;;5029611;28;20045;-75
2024/02/22 09:02:39;;;;;;;37.70;18.98;;;;;;;;;;5030857;28;20513;-76
2024/02/22 09:05:06;;;;;;;38.22;18.60;;;;;;;;;;5028064;28;20743;-76
2024/02/22 09:07:35;;;;;;;30.88;13.35;;;;;;;;;;5012790;28;20037;-81
2024/02/22 09:10:06;;;;;;;28.67;15.05;;;;;;;;;;5008538;28;20060;-77
2024/02/22 09:12:32;;;;;;;;;;;;;;;;;;5013284;28;20049;-76
2024/02/22 09:14:58;;;;;;;22.27;12.65;;;;;;;;;;5031218;28;19935;-77
2024/02/22 09:17:24;;;;;;;11.65;9.00;;;;;;;;;;5015056;28;20430;-76
2024/02/22 09:19:51;;;;;;;22.17;15.43;;;;;;;;;;5023250;28;20045;-77
2024/02/22 09:22:20;;;;;;;38.72;23.33;;;;;;;;;;5002836;28;20072;-74
2024/02/22 09:24:46;;;;;;;27.02;16.17;;;;;;;;;;5021808;28;20111;-75
2024/02/22 09:27:12;;;;;;;23.60;15.20;;;;;;;;;;5020678;28;20432;-75
2024/02/22 09:29:38;;;;;;;16.45;10.23;;;;;;;;;;5006856;28;20041;-75
2024/02/22 09:32:05;;;;;;;30.30;15.55;;;;;;;;;;5024697;28;20040;-77
2024/02/22 09:34:35;;;;;;;45.83;17.20;;;;;;;;;;5026312;28;20463;-75
2024/02/22 09:37:01;;;;;;;28.95;15.52;;;;;;;;;;5023416;28;20021;-75
2024/02/22 09:39:28;;;;;;;23.90;13.27;;;;;;;;;;5007690;28;20461;-76
2024/02/22 09:41:54;;;;;;;31.08;16.38;;;;;;;;;;5007744;28;20402;-75
2024/02/22 09:44:20;;;;;;;20.77;13.77;;;;;;;;;;5020183;28;20033;-76
2024/02/22 09:46:49;;;;;;;31.40;17.40;;;;;;;;;;5007208;28;20103;-77
2024/02/22 09:49:15;;;;;;;22.23;17.45;;;;;;;;;;5003907;28;20685;-77
2024/02/22 09:51:41;;;;;;;27.25;16.63;;;;;;;;;;4988083;28;20041;-76
2024/02/22 09:54:07;;;;;;;26.95;15.40;;;;;;;;;;5006102;28;20068;-78
2024/02/22 09:56:34;;;;;;;31.05;16.75;;;;;;;;;;5009200;28;20041;-77
2024/02/22 09:59:00;;;;;;;34.08;19.73;;;;;;;;;;5025172;28;20039;-77
2024/02/22 10:01:26;;;;;;;25.17;15.75;;;;;;;;;;5026002;28;20049;-75
2024/02/22 10:03:52;;;;;;;28.20;16.15;;;;;;;;;;5025943;28;20037;-75
2024/02/22 10:06:22;;;;;;;15.88;11.18;;;;;;;;;;5025996;28;20512;-75
2024/02/22 10:08:48;;;;;;;20.42;13.60;;;;;;;;;;5024028;28;20029;-77
2024/02/22 10:11:17;;;;;;;21.00;13.55;;;;;;;;;;5027909;28;20057;-77
2024/02/22 10:13:43;;;;;;;19.77;15.25;;;;;;;;;;5027449;28;20053;-78
2024/02/22 10:16:10;;;;;;;19.00;12.77;;;;;;;;;;5026327;28;20045;-78
2024/02/22 10:18:37;;;;;;;21.48;14.05;;;;;;;;;;5024760;28;20570;-78
2024/02/22 10:21:15;;;;;;;22.98;12.88;;;;;;;;;;5003748;28;20096;-76
2024/02/22 10:23:43;;;;;;;13.48;11.13;;;;;;;;;;5021421;28;20036;-76
2024/02/22 10:26:09;;;;;;;25.45;18.70;;;;;;;;;;5020934;28;20583;-78
2024/02/22 10:28:35;;;;;;;25.48;13.60;;;;;;;;;;5022269;28;20136;-76
2024/02/22 10:31:04;;;;;;;22.17;15.10;;;;;;;;;;5024456;28;20149;-76
2024/02/22 10:33:30;;;;;;;19.55;12.93;;;;;;;;;;5028527;28;20030;-76
2024/02/22 10:35:59;;;;;;;21.10;12.68;;;;;;;;;;5027024;28;20068;-77
2024/02/22 10:38:28;;;;;;;27.75;17.10;;;;;;;;;;5028072;28;20104;-77
2024/02/22 10:40:55;;;;;;;30.77;15.82;;;;;;;;;;5023649;28;20057;-76
2024/02/22 10:43:21;;;;;;;23.27;15.30;;;;;;;;;;5026199;28;20034;-76
2024/02/22 10:45:47;;;;;;;27.77;15.50;;;;;;;;;;5024444;28;20528;-77
2024/02/22 10:48:13;;;;;;;21.40;14.38;;;;;;;;;;5024644;28;20029;-76
2024/02/22 10:50:39;;;;;;;21.05;14.43;;;;;;;;;;5026405;28;20060;-77
2024/02/22 10:53:05;;;;;;;15.05;11.98;;;;;;;;;;5024366;28;20030;-78
2024/02/22 10:55:32;;;;;;;24.95;15.45;;;;;;;;;;4999812;28;20053;-79
2024/02/22 10:57:57;;;;;;;15.98;10.25;;;;;;;;;;5007157;28;20037;-79
2024/02/22 11:00:23;;;;;;;14.88;10.70;;;;;;;;;;5023521;28;20045;-80
2024/02/22 11:02:49;;;;;;;24.50;13.98;;;;;;;;;;5010084;28;20621;-78
2024/02/22 11:05:15;;;;;;;21.55;13.30;;;;;;;;;;5010978;28;20413;-76
2024/02/22 11:07:48;;;;;;;20.95;16.13;;;;;;;;;;5024266;28;20057;-76
2024/02/22 11:10:14;;;;;;;24.73;16.67;;;;;;;;;;5013167;28;20104;-78
2024/02/22 11:12:43;;;;;;;18.35;15.10;;;;;;;;;;5027163;28;20521;-80
2024/02/22 11:15:10;;;;;;;16.02;11.80;;;;;;;;;;5037827;28;20044;-81
2024/02/22 11:17:41;;;;;;;26.02;16.38;;;;;;;;;;5031405;28;20025;-79
2024/02/22 11:20:10;;;;;;;25.23;18.30;;;;;;;;;;5017205;28;20103;-79
2024/02/22 11:22:36;;;;;;;28.60;15.75;;;;;;;;;;5016238;28;20042;-78
2024/02/22 11:25:05;;;;;;;19.50;14.95;;;;;;;;;;5030373;28;20036;-80
2024/02/22 11:27:31;;;;;;;20.40;14.93;;;;;;;;;;5015967;28;20033;-79
2024/02/22 11:29:58;;;;;;;31.25;19.63;;;;;;;;;;5027561;28;20050;-78
2024/02/22 11:32:24;;;;;;;20.52;13.70;;;;;;;;;;5036359;28;20037;-79
2024/02/22 11:34:51;;;;;;;32.85;14.10;;;;;;;;;;5002454;28;20034;-81
2024/02/22 11:37:18;;;;;;;23.40;15.68;;;;;;;;;;5036631;28;20067;-81
2024/02/22 11:39:44;;;;;;;15.98;13.98;;;;;;;;;;5041652;28;20108;-81
2024/02/22 11:42:18;;;;;;;21.17;13.25;;;;;;;;;;5049650;28;20045;-81
2024/02/22 11:44:44;;;;;;;27.08;18.20;;;;;;;;;;5020959;28;20026;-79
2024/02/22 11:47:11;;;;;;;24.58;16.25;;;;;;;;;;5039630;28;20065;-79
2024/02/22 11:49:36;;;;;;;23.95;15.98;;;;;;;;;;5021997;28;20116;-79
2024/02/22 11:52:03;;;;;;;17.90;13.07;;;;;;;;;;5027655;28;20600;-79
2024/02/22 11:54:28;;;;;;;16.80;13.82;;;;;;;;;;5027705;28;20045;-80
2024/02/22 11:56:54;;;;;;;17.38;12.57;;;;;;;;;;5027983;28;20782;-79
2024/02/22 11:59:20;;;;;;;29.65;19.35;;;;;;;;;;5026107;28;20037;-78
2024/02/22 12:01:46;;;;;;;19.30;13.18;;;;;;;;;;5005649;28;20052;-77
2024/02/22 12:04:12;;;;;;;11.15;9.40;;;;;;;;;;5010335;28;20030;-78
2024/02/22 12:06:40;;;;;;;16.77;12.57;;;;;;;;;;5029356;28;20491;-78
2024/02/22 12:09:07;;;;;;;14.98;11.27;;;;;;;;;;4998605;28;20079;-78
2024/02/22 12:11:34;;;;;;;11.80;10.00;;;;;;;;;;5011710;28;20598;-78
2024/02/22 12:14:02;;;;;;;11.35;9.73;;;;;;;;;;5009154;28;20041;-78
2024/02/22 12:16:29;;;;;;;10.23;9.10;;;;;;;;;;5028631;28;20045;-76
2024/02/22 12:18:55;;;;;;;13.68;11.30;;;;;;;;;;5026310;28;20038;-77
2024/02/22 12:21:30;;;;;;;14.93;13.40;;;;;;;;;;5028514;28;20045;-78
2024/02/22 12:23:59;;;;;;;13.27;9.90;;;;;;;;;;5027384;28;20033;-77
2024/02/22 12:26:25;;;;;;;21.45;12.23;;;;;;;;;;5031447;28;20041;-79
2024/02/22 12:28:53;;;;;;;14.98;10.60;;;;;;;;;;5028793;28;20062;-79
2024/02/22 12:31:23;;;;;;;16.33;11.75;;;;;;;;;;5030248;28;20042;-77
2024/02/22 12:33:50;;;;;;;27.33;16.63;;;;;;;;;;5017838;28;20222;-77
2024/02/22 12:36:20;;;;;;;16.52;10.52;;;;;;;;;;5010479;28;20532;-76
2024/02/22 12:38:46;;;;;;;18.52;11.93;;;;;;;;;;5027268;28;20187;-78
2024/02/22 12:41:12;;;;;;;16.10;12.57;;;;;;;;;;5026210;28;20144;-77
2024/02/22 12:43:39;;;;;;;13.40;11.45;;;;;;;;;;5014866;28;20042;-78
2024/02/22 12:46:06;;;;;;;15.27;11.50;;;;;;;;;;5028243;28;20481;-78
2024/02/22 12:48:32;;;;;;;16.10;11.60;;;;;;;;;;5011286;28;20535;-78
2024/02/22 12:50:58;;;;;;;11.57;8.98;;;;;;;;;;5028082;28;20134;-78
2024/02/22 12:53:25;;;;;;;16.95;13.88;;;;;;;;;;5033844;28;20029;-78
2024/02/22 12:55:50;;;;;;;17.45;12.25;;;;;;;;;;5025148;28;20044;-78
2024/02/22 12:58:16;;;;;;;21.40;10.27;;;;;;;;;;5027043;28;20034;-78
2024/02/22 13:00:42;;;;;;;14.98;9.93;;;;;;;;;;5009500;28;20058;-77
2024/02/22 13:03:08;;;;;;;18.92;13.20;;;;;;;;;;5010491;28;20139;-77
2024/02/22 13:05:34;;;;;;;18.10;13.70;;;;;;;;;;4995630;28;20413;-78
2024/02/22 13:08:00;;;;;;;22.88;11.57;;;;;;;;;;5019880;28;20588;-77
2024/02/22 13:10:46;;;;;;;15.88;11.05;;;;;;;;;;5027904;28;20048;-76
2024/02/22 13:13:12;;;;;;;10.10;9.02;;;;;;;;;;5011653;28;20516;-79
2024/02/22 13:15:38;;;;;;;22.23;14.02;;;;;;;;;;5013637;28;20033;-80
2024/02/22 13:18:06;;;;;;;12.85;9.82;;;;;;;;;;5028701;28;20061;-79
2024/02/22 13:20:34;;;;;;;16.45;12.60;;;;;;;;;;5023868;28;20045;-79
2024/02/22 13:23:01;;;;;;;20.60;10.90;;;;;;;;;;5009927;28;20033;-77
2024/02/22 13:25:27;;;;;;;13.40;11.55;;;;;;;;;;5027225;28;20547;-78
2024/02/22 13:27:53;;;;;;;13.68;9.13;;;;;;;;;;5030216;28;20029;-79
2024/02/22 13:30:19;;;;;;;18.17;13.30;;;;;;;;;;5029312;28;20119;-77
2024/02/22 13:32:45;;;;;;;23.80;12.80;;;;;;;;;;5028211;28;20033;-77
2024/02/22 13:35:11;;;;;;;19.05;13.30;;;;;;;;;;5009611;28;20040;-77
2024/02/22 13:37:36;;;;;;;16.88;10.80;;;;;;;;;;5027501;28;20064;-77
2024/02/22 13:40:05;;;;;;;14.63;10.90;;;;;;;;;;5026944;28;20152;-78
2024/02/22 13:42:32;;;;;;;18.02;12.82;;;;;;;;;;5029129;28;20045;-77